Yreka, CA (96097)

11:58 PM PDT on August 23, 2016 (GMT -0700)
Sierra Vista | | Change Station

Elev 2743 ft 41.73 °N, 122.62 °W | Updated 57 seconds ago

Clear
Clear
63.3 °F
Feels Like 63.3 °F
N
0.0
Wind Variable Wind from ESE
Gusts 0.0 mph

Today
High -- | Low -- °F
--% Chance of Precip.
Yesterday
High -- | Low -- °F
Precip. -- in
Pressure 30.12 in
Visibility 10.0 miles
Clouds Clear
Dew Point 31 °F
Humidity 29%
Rainfall 0.07 in
Snow Depth Not available.
6:27 AM 7:57 PM
Waning Gibbous, 60% visible
METAR KSIY 240653Z AUTO 04005KT 10SM CLR 18/M04 A3014 RMK AO2 SLP197 T01781039
Pressure 30.12 in
Visibility 10.0 miles
Clouds Clear
Dew Point 31 °F
Humidity 29%
Rainfall 0.07 in
Snow Depth Not available.
6:27 AM 7:57 PM
Waning Gibbous, 60% visible
METAR KSIY 240653Z AUTO 04005KT 10SM CLR 18/M04 A3014 RMK AO2 SLP197 T01781039

10-Day Weather Forecast

Almanac

Astronomy

Aug. 23, 2016 Rise Set
Actual Time
Civil Twilight
Nautical Twilight
Astronomical Twilight
Moon
Length of Visible Light
Length of Day
Tomorrow will be .
, % of the Moon is Illuminated

Today's Extremes

State Highs State Lows

Community

WunderPhotos

Upload Photos

1,934,555 photos uploaded!

WunderBlog® & News

Nearby

Air Quality

  Air Quality AQ Index Pollutant
Not available.

Snow Depth

Station Depth Elevation

Earthquake Activity

City Distance Mag. Time & Date
Minimum magnitude displayed is 2.5.

Coastal Water Temperatures

Place Temperature

Stations

Nearby Weather Stations

Station Location Temp. Windchill Dew Point Humidity Wind Precip. Elev Updated Type
                   

Watches & Warnings

There are currently no watches in effect.